sensor_id;sensor_type;location;lat;lon;timestamp;pressure;altitude;pressure_sealevel;temperature;humidity
43681;BME280;29281;50.356;30.894;2022-07-06T00:00:48;99903.91;;;26.01;53.66
43681;BME280;29281;50.356;30.894;2022-07-06T00:01:52;99911.24;;;26.00;53.73
43681;BME280;29281;50.356;30.894;2022-07-06T00:02:55;99903.28;;;25.99;53.96
43681;BME280;29281;50.356;30.894;2022-07-06T00:04:04;99897.84;;;25.99;53.88
43681;BME280;29281;50.356;30.894;2022-07-06T00:05:11;99900.56;;;25.99;53.88
43681;BME280;29281;50.356;30.894;2022-07-06T00:06:16;99902.69;;;25.97;53.98
43681;BME280;29281;50.356;30.894;2022-07-06T00:07:20;99896.83;;;25.93;54.41
43681;BME280;29281;50.356;30.894;2022-07-06T00:08:27;99904.33;;;25.98;54.25
43681;BME280;29281;50.356;30.894;2022-07-06T00:09:35;99900.59;;;25.92;54.43
43681;BME280;29281;50.356;30.894;2022-07-06T00:10:39;99900.59;;;25.92;54.55
43681;BME280;29281;50.356;30.894;2022-07-06T00:11:42;99900.16;;;25.88;54.87
43681;BME280;29281;50.356;30.894;2022-07-06T00:38:42;99889.91;;;25.51;55.60
43681;BME280;29281;50.356;30.894;2022-07-06T00:39:46;99887.19;;;25.51;55.80
43681;BME280;29281;50.356;30.894;2022-07-06T00:40:50;99894.08;;;25.47;55.55
43681;BME280;29281;50.356;30.894;2022-07-06T00:41:54;99896.36;;;25.43;55.75
43681;BME280;29281;50.356;30.894;2022-07-06T00:42:58;99897.84;;;25.46;55.43
43681;BME280;29281;50.356;30.894;2022-07-06T00:44:06;99898.05;;;25.44;55.55
43681;BME280;29281;50.356;30.894;2022-07-06T00:45:12;99896.36;;;25.43;55.40
43681;BME280;29281;50.356;30.894;2022-07-06T00:46:17;99891.56;;;25.45;55.55
43681;BME280;29281;50.356;30.894;2022-07-06T00:47:25;99890.31;;;25.48;55.34
43681;BME280;29281;50.356;30.894;2022-07-06T00:48:29;99891.56;;;25.45;55.53
43681;BME280;29281;50.356;30.894;2022-07-06T00:49:34;99893.43;;;25.51;54.84
43681;BME280;29281;50.356;30.894;2022-07-06T00:50:55;99890.31;;;25.48;55.06
43681;BME280;29281;50.356;30.894;2022-07-06T00:52:00;99890.31;;;25.48;55.31
43681;BME280;29281;50.356;30.894;2022-07-06T00:53:07;99891.36;;;25.47;55.14
43681;BME280;29281;50.356;30.894;2022-07-06T00:54:11;99886.73;;;25.41;55.06
43681;BME280;29281;50.356;30.894;2022-07-06T00:55:19;99893.23;;;25.33;55.20
43681;BME280;29281;50.356;30.894;2022-07-06T00:56:23;99894.46;;;25.37;55.09
43681;BME280;29281;50.356;30.894;2022-07-06T00:57:29;99894.69;;;25.42;55.25
43681;BME280;29281;50.356;30.894;2022-07-06T00:58:34;99894.70;;;25.36;55.92
43681;BME280;29281;50.356;30.894;2022-07-06T00:59:38;99895.11;;;25.33;55.70
43681;BME280;29281;50.356;30.894;2022-07-06T01:00:42;99896.13;;;25.25;55.57
43681;BME280;29281;50.356;30.894;2022-07-06T01:01:51;99893.41;;;25.25;55.79
43681;BME280;29281;50.356;30.894;2022-07-06T01:02:55;99885.89;;;25.20;55.94
43681;BME280;29281;50.356;30.894;2022-07-06T01:04:01;99884.82;;;25.21;56.13
43681;BME280;29281;50.356;30.894;2022-07-06T01:05:08;99885.89;;;25.20;55.82
43681;BME280;29281;50.356;30.894;2022-07-06T01:06:14;99885.66;;;25.15;55.98
43681;BME280;29281;50.356;30.894;2022-07-06T01:07:19;99885.26;;;25.18;55.98
43681;BME280;29281;50.356;30.894;2022-07-06T01:08:25;99886.70;;;25.21;56.11
43681;BME280;29281;50.356;30.894;2022-07-06T01:09:29;99887.34;;;25.16;55.97
43681;BME280;29281;50.356;30.894;2022-07-06T01:10:33;99892.14;;;25.14;55.88
43681;BME280;29281;50.356;30.894;2022-07-06T01:11:40;99889.22;;;25.16;55.76
43681;BME280;29281;50.356;30.894;2022-07-06T01:12:50;99883.38;;;25.26;55.45
43681;BME280;29281;50.356;30.894;2022-07-06T01:14:00;99886.72;;;25.28;55.48
43681;BME280;29281;50.356;30.894;2022-07-06T01:15:08;99884.42;;;25.18;55.95
43681;BME280;29281;50.356;30.894;2022-07-06T01:16:15;99889.63;;;25.13;56.12
43681;BME280;29281;50.356;30.894;2022-07-06T01:17:19;99892.37;;;25.19;55.77
43681;BME280;29281;50.356;30.894;2022-07-06T01:18:23;99892.77;;;25.23;55.62
43681;BME280;29281;50.356;30.894;2022-07-06T01:19:30;99886.09;;;25.26;55.45
43681;BME280;29281;50.356;30.894;2022-07-06T01:20:37;99888.38;;;25.22;55.65
43681;BME280;29281;50.356;30.894;2022-07-06T01:21:43;99887.54;;;25.21;55.64
43681;BME280;29281;50.356;30.894;2022-07-06T01:22:48;99889.65;;;25.26;55.65
43681;BME280;29281;50.356;30.894;2022-07-06T01:23:53;99888.60;;;25.27;55.61
43681;BME280;29281;50.356;30.894;2022-07-06T01:25:00;99890.26;;;25.21;55.68
43681;BME280;29281;50.356;30.894;2022-07-06T01:26:04;99897.80;;;25.19;55.82
43681;BME280;29281;50.356;30.894;2022-07-06T01:27:08;99896.13;;;25.18;55.91
43681;BME280;29281;50.356;30.894;2022-07-06T01:28:14;99896.53;;;25.15;56.00
43681;BME280;29281;50.356;30.894;2022-07-06T01:29:18;99890.27;;;25.15;56.04
43681;BME280;29281;50.356;30.894;2022-07-06T01:30:28;99895.06;;;25.13;56.18
43681;BME280;29281;50.356;30.894;2022-07-06T01:31:29;99890.47;;;25.13;56.11
43681;BME280;29281;50.356;30.894;2022-07-06T01:32:34;99894.22;;;25.12;56.17
43681;BME280;29281;50.356;30.894;2022-07-06T01:33:40;99894.86;;;25.14;56.05
43681;BME280;29281;50.356;30.894;2022-07-06T01:34:46;99892.95;;;25.08;56.41
43681;BME280;29281;50.356;30.894;2022-07-06T01:35:51;99898.59;;;25.07;56.74
43681;BME280;29281;50.356;30.894;2022-07-06T01:36:56;99893.79;;;25.09;56.63
43681;BME280;29281;50.356;30.894;2022-07-06T01:38:01;99890.67;;;25.05;57.10
43681;BME280;29281;50.356;30.894;2022-07-06T01:39:05;99892.95;;;25.02;56.97
43681;BME280;29281;50.356;30.894;2022-07-06T01:40:11;99894.19;;;24.99;57.63
43681;BME280;29281;50.356;30.894;2022-07-06T01:41:15;99902.71;;;24.89;57.38
43681;BME280;29281;50.356;30.894;2022-07-06T01:42:22;99901.03;;;24.88;57.50
43681;BME280;29281;50.356;30.894;2022-07-06T01:43:25;99903.31;;;24.92;57.49
43681;BME280;29281;50.356;30.894;2022-07-06T01:44:32;99895.17;;;24.92;57.32
43681;BME280;29281;50.356;30.894;2022-07-06T01:45:40;99901.23;;;24.87;57.53
43681;BME280;29281;50.356;30.894;2022-07-06T01:46:42;99904.35;;;24.84;57.60
43681;BME280;29281;50.356;30.894;2022-07-06T01:47:48;99902.23;;;24.79;58.09
43681;BME280;29281;50.356;30.894;2022-07-06T01:48:53;99898.05;;;24.77;58.40
43681;BME280;29281;50.356;30.894;2022-07-06T01:50:06;99893.05;;;24.74;58.11
43681;BME280;29281;50.356;30.894;2022-07-06T01:51:16;99901.63;;;24.84;57.88
43681;BME280;29281;50.356;30.894;2022-07-06T01:52:22;99898.05;;;24.77;58.48
43681;BME280;29281;50.356;30.894;2022-07-06T01:53:24;99893.25;;;24.79;58.43
43681;BME280;29281;50.356;30.894;2022-07-06T01:54:29;99894.48;;;24.76;58.42
43681;BME280;29281;50.356;30.894;2022-07-06T01:55:33;99895.77;;;24.80;58.07
43681;BME280;29281;50.356;30.894;2022-07-06T01:56:38;99890.77;;;24.90;57.77
43681;BME280;29281;50.356;30.894;2022-07-06T01:57:43;99892.92;;;24.95;57.60
43681;BME280;29281;50.356;30.894;2022-07-06T01:58:47;99890.57;;;24.92;57.67
43681;BME280;29281;50.356;30.894;2022-07-06T01:59:51;99901.23;;;24.87;57.85
43681;BME280;29281;50.356;30.894;2022-07-06T02:00:58;99897.44;;;24.81;58.49
43681;BME280;29281;50.356;30.894;2022-07-06T02:02:04;99894.53;;;24.83;58.42
43681;BME280;29281;50.356;30.894;2022-07-06T02:03:10;99898.11;;;24.90;58.00
43681;BME280;29281;50.356;30.894;2022-07-06T02:04:16;99901.23;;;24.87;58.07
43681;BME280;29281;50.356;30.894;2022-07-06T02:05:21;99894.33;;;24.84;58.41
43681;BME280;29281;50.356;30.894;2022-07-06T02:06:25;99890.77;;;24.84;58.33
43681;BME280;29281;50.356;30.894;2022-07-06T02:07:28;99896.44;;;24.89;58.25
43681;BME280;29281;50.356;30.894;2022-07-06T02:08:33;99899.36;;;24.87;58.52
43681;BME280;29281;50.356;30.894;2022-07-06T02:09:38;99901.70;;;24.97;58.28
43681;BME280;29281;50.356;30.894;2022-07-06T02:10:43;99890.64;;;24.99;57.87
43681;BME280;29281;50.356;30.894;2022-07-06T02:11:46;99888.36;;;25.02;57.78
43681;BME280;29281;50.356;30.894;2022-07-06T02:12:51;99885.64;;;25.02;57.94
43681;BME280;29281;50.356;30.894;2022-07-06T02:13:55;99894.63;;;25.03;57.85
43681;BME280;29281;50.356;30.894;2022-07-06T02:15:01;99886.48;;;25.03;57.96
43681;BME280;29281;50.356;30.894;2022-07-06T02:16:06;99887.52;;;25.02;58.09
43681;BME280;29281;50.356;30.894;2022-07-06T02:17:11;99887.52;;;25.02;58.20
43681;BME280;29281;50.356;30.894;2022-07-06T02:18:14;99894.42;;;25.04;58.22
43681;BME280;29281;50.356;30.894;2022-07-06T02:19:18;99900.27;;;25.08;58.09
43681;BME280;29281;50.356;30.894;2022-07-06T02:20:24;99887.11;;;25.05;58.13
43681;BME280;29281;50.356;30.894;2022-07-06T02:21:31;99892.58;;;25.18;57.65
43681;BME280;29281;50.356;30.894;2022-07-06T02:22:35;99891.94;;;25.16;57.71
43681;BME280;29281;50.356;30.894;2022-07-06T02:23:39;99897.58;;;25.14;57.94
43681;BME280;29281;50.356;30.894;2022-07-06T02:24:46;99894.42;;;25.11;57.89
43681;BME280;29281;50.356;30.894;2022-07-06T02:25:50;99888.79;;;25.12;57.89
43681;BME280;29281;50.356;30.894;2022-07-06T02:26:55;99899.05;;;25.17;57.90
43681;BME280;29281;50.356;30.894;2022-07-06T02:27:59;99891.09;;;25.15;57.89
43681;BME280;29281;50.356;30.894;2022-07-06T02:29:05;99896.77;;;25.20;57.78
43681;BME280;29281;50.356;30.894;2022-07-06T02:30:11;99900.09;;;25.22;57.75
43681;BME280;29281;50.356;30.894;2022-07-06T02:31:14;99890.28;;;25.28;57.67
43681;BME280;29281;50.356;30.894;2022-07-06T02:32:22;99894.87;;;25.28;57.68
43681;BME280;29281;50.356;30.894;2022-07-06T02:33:25;99893.02;;;25.35;57.27
43681;BME280;29281;50.356;30.894;2022-07-06T02:34:29;99885.66;;;25.22;57.68
43681;BME280;29281;50.356;30.894;2022-07-06T02:35:34;99891.53;;;25.26;57.64
43681;BME280;29281;50.356;30.894;2022-07-06T02:36:38;99886.09;;;25.26;57.46
43681;BME280;29281;50.356;30.894;2022-07-06T02:37:41;99893.41;;;25.25;57.64
43681;BME280;29281;50.356;30.894;2022-07-06T02:38:47;99891.75;;;25.31;57.62
43681;BME280;29281;50.356;30.894;2022-07-06T02:39:53;99885.28;;;25.32;57.54
43681;BME280;29281;50.356;30.894;2022-07-06T02:40:57;99886.94;;;25.39;57.20
43681;BME280;29281;50.356;30.894;2022-07-06T02:42:01;99882.98;;;25.42;57.48
43681;BME280;29281;50.356;30.894;2022-07-06T02:43:12;99885.28;;;25.32;57.53
43681;BME280;29281;50.356;30.894;2022-07-06T02:44:16;99887.59;;;25.35;57.46
43681;BME280;29281;50.356;30.894;2022-07-06T02:45:20;99883.83;;;25.36;57.63
43681;BME280;29281;50.356;30.894;2022-07-06T02:46:26;99884.42;;;25.38;57.54
43681;BME280;29281;50.356;30.894;2022-07-06T02:47:29;99886.75;;;25.34;57.91
43681;BME280;29281;50.356;30.894;2022-07-06T02:48:33;99883.60;;;25.31;57.76
43681;BME280;29281;50.356;30.894;2022-07-06T02:49:39;99878.80;;;25.33;57.87
43681;BME280;29281;50.356;30.894;2022-07-06T02:50:44;99883.41;;;25.45;57.73
43681;BME280;29281;50.356;30.894;2022-07-06T02:51:50;99878.39;;;25.49;57.54
43681;BME280;29281;50.356;30.894;2022-07-06T02:52:55;99871.27;;;25.54;57.56
43681;BME280;29281;50.356;30.894;2022-07-06T02:54:06;99873.63;;;25.64;57.19
43681;BME280;29281;50.356;30.894;2022-07-06T02:55:11;99876.97;;;25.66;57.16
43681;BME280;29281;50.356;30.894;2022-07-06T02:56:16;99882.80;;;25.70;57.10
43681;BME280;29281;50.356;30.894;2022-07-06T02:57:21;99883.84;;;25.69;56.92
43681;BME280;29281;50.356;30.894;2022-07-06T02:58:25;99880.50;;;25.67;57.38
43681;BME280;29281;50.356;30.894;2022-07-06T02:59:30;99880.51;;;25.73;57.06
43681;BME280;29281;50.356;30.894;2022-07-06T03:00:34;99881.76;;;25.71;57.71
43681;BME280;29281;50.356;30.894;2022-07-06T03:01:38;99879.04;;;25.71;57.70
43681;BME280;29281;50.356;30.894;2022-07-06T03:02:42;99883.22;;;25.67;57.84
43681;BME280;29281;50.356;30.894;2022-07-06T03:03:45;99874.88;;;25.62;57.78
43681;BME280;29281;50.356;30.894;2022-07-06T03:04:50;99879.85;;;25.58;58.29
43681;BME280;29281;50.356;30.894;2022-07-06T03:05:54;99877.13;;;25.58;58.26
43681;BME280;29281;50.356;30.894;2022-07-06T03:06:58;99878.22;;;25.64;58.11
43681;BME280;29281;50.356;30.894;2022-07-06T03:08:02;99881.33;;;25.87;57.25
43681;BME280;29281;50.356;30.894;2022-07-06T03:09:06;99880.65;;;26.31;55.98
43681;BME280;29281;50.356;30.894;2022-07-06T03:10:10;99872.98;;;26.66;54.75
43681;BME280;29281;50.356;30.894;2022-07-06T03:11:16;99872.50;;;26.82;54.00
43681;BME280;29281;50.356;30.894;2022-07-06T03:12:20;99869.21;;;27.12;53.36
43681;BME280;29281;50.356;30.894;2022-07-06T03:13:23;99870.87;;;27.44;52.28
43681;BME280;29281;50.356;30.894;2022-07-06T03:14:27;99866.59;;;27.55;52.00
43681;BME280;29281;50.356;30.894;2022-07-06T03:15:33;99867.45;;;27.24;53.02
43681;BME280;29281;50.356;30.894;2022-07-06T03:16:37;99875.62;;;26.86;53.95
43681;BME280;29281;50.356;30.894;2022-07-06T03:17:40;99878.80;;;26.76;54.35
43681;BME280;29281;50.356;30.894;2022-07-06T03:18:44;99885.70;;;26.79;54.39
43681;BME280;29281;50.356;30.894;2022-07-06T03:19:49;99877.61;;;26.59;55.00
43681;BME280;29281;50.356;30.894;2022-07-06T03:20:53;99878.91;;;26.56;54.82
43681;BME280;29281;50.356;30.894;2022-07-06T03:21:59;99875.34;;;26.56;54.87
43681;BME280;29281;50.356;30.894;2022-07-06T03:23:04;99878.13;;;26.36;55.74
43681;BME280;29281;50.356;30.894;2022-07-06T03:24:12;99874.58;;;26.29;55.82
43681;BME280;29281;50.356;30.894;2022-07-06T03:25:23;99884.84;;;26.20;56.69
43681;BME280;29281;50.356;30.894;2022-07-06T03:26:28;99887.17;;;26.04;56.82
43681;BME280;29281;50.356;30.894;2022-07-06T03:27:32;99888.25;;;25.96;57.33
43681;BME280;29281;50.356;30.894;2022-07-06T03:28:37;99885.70;;;26.01;57.05
43681;BME280;29281;50.356;30.894;2022-07-06T03:29:41;99883.16;;;26.13;56.82
43681;BME280;29281;50.356;30.894;2022-07-06T03:30:45;99885.26;;;26.24;56.82
43681;BME280;29281;50.356;30.894;2022-07-06T03:31:49;99880.45;;;26.19;56.83
43681;BME280;29281;50.356;30.894;2022-07-06T03:32:53;99885.26;;;26.24;56.84
43681;BME280;29281;50.356;30.894;2022-07-06T03:33:56;99887.56;;;26.27;56.68
43681;BME280;29281;50.356;30.894;2022-07-06T03:35:00;99890.28;;;26.27;56.61
43681;BME280;29281;50.356;30.894;2022-07-06T03:36:04;99890.28;;;26.27;56.53
43681;BME280;29281;50.356;30.894;2022-07-06T03:37:11;99893.00;;;26.20;57.22
43681;BME280;29281;50.356;30.894;2022-07-06T03:38:15;99891.57;;;26.11;57.29
43681;BME280;29281;50.356;30.894;2022-07-06T03:39:22;99885.47;;;26.16;57.13
43681;BME280;29281;50.356;30.894;2022-07-06T03:40:26;99887.77;;;26.25;57.31
43681;BME280;29281;50.356;30.894;2022-07-06T03:41:30;99884.41;;;26.37;56.82
43681;BME280;29281;50.356;30.894;2022-07-06T03:42:35;99886.89;;;26.45;56.50
43681;BME280;29281;50.356;30.894;2022-07-06T03:43:45;99887.72;;;26.45;56.53
43681;BME280;29281;50.356;30.894;2022-07-06T03:44:49;99887.09;;;26.50;56.44
43681;BME280;29281;50.356;30.894;2022-07-06T03:45:52;99884.16;;;26.51;56.47
43681;BME280;29281;50.356;30.894;2022-07-06T03:46:58;99890.23;;;26.47;56.58
43681;BME280;29281;50.356;30.894;2022-07-06T03:48:05;99891.28;;;26.46;56.98
43681;BME280;29281;50.356;30.894;2022-07-06T03:49:11;99883.73;;;26.54;57.02
43681;BME280;29281;50.356;30.894;2022-07-06T03:50:15;99878.45;;;26.59;56.95
43681;BME280;29281;50.356;30.894;2022-07-06T03:51:19;99880.97;;;26.61;57.05
43681;BME280;29281;50.356;30.894;2022-07-06T03:52:24;99888.70;;;26.64;56.93
43681;BME280;29281;50.356;30.894;2022-07-06T03:53:35;99888.50;;;26.66;57.06
43681;BME280;29281;50.356;30.894;2022-07-06T03:54:39;99889.97;;;26.61;57.47
43681;BME280;29281;50.356;30.894;2022-07-06T03:55:43;99888.28;;;26.67;57.15
43681;BME280;29281;50.356;30.894;2022-07-06T03:56:49;99884.30;;;26.70;56.87
43681;BME280;29281;50.356;30.894;2022-07-06T03:57:55;99888.22;;;26.80;56.98
43681;BME280;29281;50.356;30.894;2022-07-06T03:59:02;99881.72;;;26.81;57.17
43681;BME280;29281;50.356;30.894;2022-07-06T04:00:10;99872.28;;;26.84;56.74
43681;BME280;29281;50.356;30.894;2022-07-06T04:01:20;99867.22;;;26.94;56.47
43681;BME280;29281;50.356;30.894;2022-07-06T04:02:27;99876.83;;;27.03;56.09
43681;BME280;29281;50.356;30.894;2022-07-06T04:03:32;99868.89;;;26.95;56.70
43681;BME280;29281;50.356;30.894;2022-07-06T04:04:39;99869.70;;;27.02;56.83
43681;BME280;29281;50.356;30.894;2022-07-06T04:05:43;99874.85;;;27.17;56.41
43681;BME280;29281;50.356;30.894;2022-07-06T04:06:47;99867.88;;;27.21;56.18
43681;BME280;29281;50.356;30.894;2022-07-06T04:07:51;99870.59;;;27.52;55.49
43681;BME280;29281;50.356;30.894;2022-07-06T04:09:00;99875.83;;;27.54;55.27
43681;BME280;29281;50.356;30.894;2022-07-06T04:10:08;99874.98;;;27.60;55.44
43681;BME280;29281;50.356;30.894;2022-07-06T04:11:12;99872.18;;;27.66;55.20
43681;BME280;29281;50.356;30.894;2022-07-06T04:12:16;99872.18;;;27.66;55.20
43681;BME280;29281;50.356;30.894;2022-07-06T04:13:20;99861.88;;;27.69;55.28
43681;BME280;29281;50.356;30.894;2022-07-06T04:14:26;99870.34;;;27.85;54.82
43681;BME280;29281;50.356;30.894;2022-07-06T04:15:34;99865.22;;;28.14;53.75
43681;BME280;29281;50.356;30.894;2022-07-06T04:16:39;99868.67;;;28.46;52.65
43681;BME280;29281;50.356;30.894;2022-07-06T04:17:44;99867.39;;;28.48;52.81
43681;BME280;29281;50.356;30.894;2022-07-06T04:19:01;99873.39;;;28.39;53.27
43681;BME280;29281;50.356;30.894;2022-07-06T04:20:07;99866.88;;;28.40;53.15
43681;BME280;29281;50.356;30.894;2022-07-06T04:21:10;99869.06;;;28.49;52.87
43681;BME280;29281;50.356;30.894;2022-07-06T04:22:18;99872.02;;;28.48;52.81
43681;BME280;29281;50.356;30.894;2022-07-06T04:23:22;99870.95;;;28.49;52.83
43681;BME280;29281;50.356;30.894;2022-07-06T04:24:28;99872.30;;;28.58;52.75
43681;BME280;29281;50.356;30.894;2022-07-06T04:25:32;99876.48;;;28.60;52.46
43681;BME280;29281;50.356;30.894;2022-07-06T04:26:37;99874.81;;;28.59;52.31
43681;BME280;29281;50.356;30.894;2022-07-06T04:27:46;99861.36;;;28.76;52.11
43681;BME280;29281;50.356;30.894;2022-07-06T04:28:56;99865.53;;;28.97;51.25
43681;BME280;29281;50.356;30.894;2022-07-06T04:30:03;99867.88;;;28.75;52.29
43681;BME280;29281;50.356;30.894;2022-07-06T04:31:06;99864.87;;;28.83;52.00
43681;BME280;29281;50.356;30.894;2022-07-06T04:32:11;99863.09;;;28.89;51.71
43681;BME280;29281;50.356;30.894;2022-07-06T04:33:16;99861.05;;;29.02;51.62
43681;BME280;29281;50.356;30.894;2022-07-06T04:34:20;99863.20;;;29.12;51.34
43681;BME280;29281;50.356;30.894;2022-07-06T04:35:25;99870.45;;;29.18;51.03
43681;BME280;29281;50.356;30.894;2022-07-06T04:36:29;99867.78;;;29.30;50.51
43681;BME280;29281;50.356;30.894;2022-07-06T04:37:36;99863.11;;;29.60;49.20
43681;BME280;29281;50.356;30.894;2022-07-06T04:38:40;99863.37;;;30.81;46.09
43681;BME280;29281;50.356;30.894;2022-07-06T04:39:45;99874.19;;;32.49;42.29
43681;BME280;29281;50.356;30.894;2022-07-06T04:40:52;99884.11;;;34.64;38.34
43681;BME280;29281;50.356;30.894;2022-07-06T04:41:55;99892.66;;;35.96;35.95
43681;BME280;29281;50.356;30.894;2022-07-06T04:42:58;99901.39;;;37.23;33.79
43681;BME280;29281;50.356;30.894;2022-07-06T04:44:03;99907.52;;;38.22;31.73
43681;BME280;29281;50.356;30.894;2022-07-06T04:45:08;99913.30;;;38.26;31.64
43681;BME280;29281;50.356;30.894;2022-07-06T04:46:12;99909.30;;;38.08;31.24
43681;BME280;29281;50.356;30.894;2022-07-06T04:47:17;99917.08;;;38.35;30.37
43681;BME280;29281;50.356;30.894;2022-07-06T04:48:28;99917.53;;;39.14;29.57
43681;BME280;29281;50.356;30.894;2022-07-06T04:49:31;99920.88;;;39.53;28.51
43681;BME280;29281;50.356;30.894;2022-07-06T04:50:35;99923.48;;;39.63;28.73
43681;BME280;29281;50.356;30.894;2022-07-06T04:51:41;99927.95;;;39.78;28.22
43681;BME280;29281;50.356;30.894;2022-07-06T04:52:45;99929.51;;;40.63;27.53
43681;BME280;29281;50.356;30.894;2022-07-06T04:53:50;99925.99;;;40.44;27.37
43681;BME280;29281;50.356;30.894;2022-07-06T04:54:58;99928.25;;;40.69;27.04
43681;BME280;29281;50.356;30.894;2022-07-06T04:56:02;99933.01;;;40.82;26.52
43681;BME280;29281;50.356;30.894;2022-07-06T04:57:08;99932.81;;;40.92;26.67
43681;BME280;29281;50.356;30.894;2022-07-06T04:58:14;99940.40;;;41.64;25.36
43681;BME280;29281;50.356;30.894;2022-07-06T04:59:20;99933.73;;;41.73;25.52
43681;BME280;29281;50.356;30.894;2022-07-06T05:00:25;99943.70;;;41.66;25.15
43681;BME280;29281;50.356;30.894;2022-07-06T05:01:29;99943.10;;;41.55;24.23
43681;BME280;29281;50.356;30.894;2022-07-06T05:02:35;99931.99;;;42.00;24.39
43681;BME280;29281;50.356;30.894;2022-07-06T05:03:41;99939.55;;;42.30;24.50
43681;BME280;29281;50.356;30.894;2022-07-06T05:04:46;99940.84;;;42.33;24.33
43681;BME280;29281;50.356;30.894;2022-07-06T05:05:54;99943.81;;;42.67;23.75
43681;BME280;29281;50.356;30.894;2022-07-06T05:07:00;99939.45;;;42.84;23.44
43681;BME280;29281;50.356;30.894;2022-07-06T05:08:04;99939.58;;;43.35;22.96
43681;BME280;29281;50.356;30.894;2022-07-06T05:09:09;99939.58;;;43.35;22.96
43681;BME280;29281;50.356;30.894;2022-07-06T05:10:14;99943.44;;;42.91;23.36
43681;BME280;29281;50.356;30.894;2022-07-06T05:11:18;99948.45;;;43.46;22.86
43681;BME280;29281;50.356;30.894;2022-07-06T05:12:23;99944.20;;;43.66;22.52
43681;BME280;29281;50.356;30.894;2022-07-06T05:13:27;99944.65;;;43.94;22.48
43681;BME280;29281;50.356;30.894;2022-07-06T05:14:31;99944.50;;;43.21;22.41
43681;BME280;29281;50.356;30.894;2022-07-06T05:15:35;99936.38;;;43.02;22.55
43681;BME280;29281;50.356;30.894;2022-07-06T05:16:40;99931.44;;;42.51;23.12
43681;BME280;29281;50.356;30.894;2022-07-06T05:17:43;99928.64;;;42.91;23.08
43681;BME280;29281;50.356;30.894;2022-07-06T05:18:46;99948.95;;;43.74;21.73
43681;BME280;29281;50.356;30.894;2022-07-06T05:19:50;99950.10;;;43.73;21.37
43681;BME280;29281;50.356;30.894;2022-07-06T05:20:59;99951.77;;;43.65;21.32
43681;BME280;29281;50.356;30.894;2022-07-06T05:22:03;99951.09;;;43.77;20.96
43681;BME280;29281;50.356;30.894;2022-07-06T05:23:07;99956.45;;;44.25;20.49
43681;BME280;29281;50.356;30.894;2022-07-06T05:24:14;99945.79;;;44.95;20.06
43681;BME280;29281;50.356;30.894;2022-07-06T05:25:22;99949.16;;;45.09;19.63
43681;BME280;29281;50.356;30.894;2022-07-06T05:26:26;99943.12;;;45.28;19.76
43681;BME280;29281;50.356;30.894;2022-07-06T05:27:31;99955.97;;;44.70;20.05
43681;BME280;29281;50.356;30.894;2022-07-06T05:28:37;99945.45;;;44.96;19.63
43681;BME280;29281;50.356;30.894;2022-07-06T05:29:45;99946.58;;;45.04;19.43
43681;BME280;29281;50.356;30.894;2022-07-06T05:30:49;99945.33;;;45.22;19.43
43681;BME280;29281;50.356;30.894;2022-07-06T05:31:53;99943.23;;;44.81;19.54
43681;BME280;29281;50.356;30.894;2022-07-06T05:32:57;99941.28;;;45.32;19.00
43681;BME280;29281;50.356;30.894;2022-07-06T05:34:02;99943.80;;;45.45;18.78
43681;BME280;29281;50.356;30.894;2022-07-06T05:35:07;99943.80;;;45.45;18.78
43681;BME280;29281;50.356;30.894;2022-07-06T05:36:14;99942.43;;;45.72;18.67
43681;BME280;29281;50.356;30.894;2022-07-06T05:37:19;99938.14;;;45.33;18.81
43681;BME280;29281;50.356;30.894;2022-07-06T05:38:24;99941.07;;;45.16;18.72
43681;BME280;29281;50.356;30.894;2022-07-06T05:39:30;99943.59;;;45.92;17.96
43681;BME280;29281;50.356;30.894;2022-07-06T05:40:33;99943.12;;;46.35;17.66
43681;BME280;29281;50.356;30.894;2022-07-06T05:41:37;99948.64;;;46.56;17.64
43681;BME280;29281;50.356;30.894;2022-07-06T05:42:40;99945.61;;;47.10;17.18
43681;BME280;29281;50.356;30.894;2022-07-06T05:43:44;99946.55;;;46.77;17.40
43681;BME280;29281;50.356;30.894;2022-07-06T05:44:48;99952.39;;;46.97;17.42
43681;BME280;29281;50.356;30.894;2022-07-06T05:45:55;99954.05;;;46.85;17.53
43681;BME280;29281;50.356;30.894;2022-07-06T05:47:01;99941.50;;;47.07;17.09
43681;BME280;29281;50.356;30.894;2022-07-06T05:48:23;99955.35;;;47.52;16.85
43681;BME280;29281;50.356;30.894;2022-07-06T05:49:47;99944.62;;;46.33;17.09
43681;BME280;29281;50.356;30.894;2022-07-06T05:51:13;99944.45;;;46.17;17.54
43681;BME280;29281;50.356;30.894;2022-07-06T05:52:18;99939.40;;;46.43;17.31
43681;BME280;29281;50.356;30.894;2022-07-06T05:53:21;99940.09;;;46.52;17.35
43681;BME280;29281;50.356;30.894;2022-07-06T05:54:27;99946.97;;;45.65;17.46
43681;BME280;29281;50.356;30.894;2022-07-06T05:55:31;99928.22;;;45.57;17.69
43681;BME280;29281;50.356;30.894;2022-07-06T05:56:37;99927.31;;;46.31;17.44
43681;BME280;29281;50.356;30.894;2022-07-06T05:57:40;99930.41;;;46.05;17.23
43681;BME280;29281;50.356;30.894;2022-07-06T05:59:58;99929.55;;;46.98;17.05
43681;BME280;29281;50.356;30.894;2022-07-06T06:01:04;99931.84;;;47.45;16.70
43681;BME280;29281;50.356;30.894;2022-07-06T06:02:10;99933.07;;;47.07;16.77
43681;BME280;29281;50.356;30.894;2022-07-06T06:03:16;99935.30;;;47.54;16.33
43681;BME280;29281;50.356;30.894;2022-07-06T06:04:22;99934.60;;;47.85;16.15
43681;BME280;29281;50.356;30.894;2022-07-06T06:05:26;99928.98;;;47.85;16.20
43681;BME280;29281;50.356;30.894;2022-07-06T06:06:32;99933.30;;;48.10;16.25
43681;BME280;29281;50.356;30.894;2022-07-06T06:07:37;99934.48;;;47.53;16.33
43681;BME280;29281;50.356;30.894;2022-07-06T06:08:41;99926.16;;;46.92;16.50
43681;BME280;29281;50.356;30.894;2022-07-06T06:09:45;99928.87;;;46.77;16.38